x

East Dellwood (46207) Wave Buoy

2:00pm - Wed 30th Jul 2014 All times are PDT. -7 hours from GMT.

  • Sig Wave height 2.6ft
  • Peak Period 6s
  • Wind
    7mph, 9mph gusts
  • Sea Temp 62°f
  • Air Temp 60°f
  • Sea Pressure 1025.4mb
  • East Dellwood
  • East Dellwood

More Historic Weather Station data

Upgrade to MSW Pro to gain access to the past 30 days of data for over 8000 Wavebouys and Weather Stations around the globe.

Join Pro

Comparision Forecast

View Surf forecast
   
Wed 07/30 2:00pm 2.5ft 6s 7 9 mph 1025.4mb 62f 60f
1:00pm 2.5ft 7s 7 9 mph 1025.2mb 61f 60f
12:00pm 2.5ft 14s 7 9 mph 1025.1mb 61f 60f
11:00am 3ft 6s 7 9 mph 1025mb 61f 59f
10:00am 3ft 6s 7 9 mph 1024.7mb 60f 60f
9:00am 3ft 6s 7 9 mph 1024.5mb 60f 60f
8:00am 3.5ft 6s 7 9 mph 1024.4mb 60f 59f
7:00am 3.5ft 6s 7 9 mph 1024.1mb 60f 59f
6:00am 3.5ft 7s 7 9 mph 1023.9mb 60f 59f
5:00am 3.5ft 7s 7 9 mph 1023.8mb 60f 59f
4:00am 3ft 6s 7 9 mph 1023.7mb 60f 59f
3:00am 3ft 7s 7 9 mph 1023.7mb 60f 59f
2:00am 3ft 7s 7 9 mph 1023.6mb 61f 59f
1:00am 3ft 7s 7 9 mph 1023.7mb 61f 59f
12:00am 3ft 8s 9
mph
1023.6mb 61f 59f
Tue 07/29 11:00pm 3ft 8s 9 11 mph 1023.6mb 61f 60f
10:00pm 3ft 7s 9
mph
1023.7mb 61f 60f
9:00pm 3.5ft 7s 9 11 mph 1023.4mb 61f 60f
8:00pm 3.5ft 7s 7 9 mph 1023.5mb 61f 61f
7:00pm 4.5ft 7s 9
mph
1023.5mb 61f 61f
6:00pm 4ft 6s 7 9 mph 1023.5mb 61f 61f
5:00pm 4ft 7s 7 9 mph 1023.4mb 61f 60f
4:00pm 4ft 7s 9 11 mph 1023.5mb 61f 61f
3:00pm 4ft 7s 11
mph
1023.3mb 61f 61f
2:00pm 4ft 8s 11 13 mph 1023.1mb 61f 61f
1:00pm 4ft 8s 11 13 mph 1022.8mb 60f 61f
12:00pm 4.5ft 7s 11 13 mph 1022.5mb 60f 60f
11:00am 4.5ft 8s 13 18 mph 1022.2mb 60f 60f
10:00am 4ft 8s 13 18 mph 1021.7mb 60f 60f
9:00am 4.5ft 8s 13 16 mph 1021.2mb 60f 60f
8:00am 5ft 8s 13 18 mph 1020.7mb 60f 60f
7:00am 5ft 8s 13 16 mph 1020.2mb 60f 59f
6:00am 6ft 8s 13 16 mph 1019.4mb 60f 60f
5:00am 5.5ft 8s 16 18 mph 1019.1mb 60f 60f
4:00am 5.5ft 8s 13 16 mph 1018.6mb 60f 60f
3:00am 5.5ft 7s 16 20 mph 1018.3mb 60f 59f
2:00am 5ft 7s 18 22 mph 1018.2mb 60f 60f
1:00am 5ft 6s 18 22 mph 1018.1mb 60f 60f
12:00am 5ft 7s 20 22 mph 1018.1mb 60f 61f
Mon 07/28 11:00pm 5ft 7s 22 27 mph 1018.2mb 60f 61f
10:00pm 5ft 6s 22 27 mph 1018.1mb 60f 61f
9:00pm 5ft 5s 22 27 mph 1018.3mb 60f 61f
8:00pm 4.5ft 6s 22 27 mph 1018.4mb 60f 61f
7:00pm 4.5ft 6s 22 27 mph 1018.7mb 60f 61f
6:00pm 4.5ft 6s 20 25 mph 1018.9mb 60f 61f
5:00pm 4ft 4s 20 25 mph 1019.1mb 60f 61f
4:00pm 4ft 5s 20 25 mph 1019.5mb 60f 61f
3:00pm 3.5ft 4s 18 22 mph 1019.9mb 60f 60f
2:00pm 3.5ft 5s 18 22 mph 1020.2mb 60f 59f
1:00pm 3.5ft 8s 18 22 mph 1020.4mb 60f 60f
12:00pm 3.5ft 8s 18 22 mph 1020.5mb 60f 60f
11:00am 3ft 8s 18 20 mph 1020.4mb 60f 60f
10:00am 3ft 15s 16 20 mph 1020.3mb 60f 60f
9:00am 3ft 8s 13 18 mph 1020.8mb 60f 60f
8:00am 3ft 16s 16 18 mph 1020.9mb 60f 60f
7:00am 3ft 8s 16 18 mph 1021mb 60f 60f
6:00am 3ft 8s 13 18 mph 1020.8mb 60f 60f
5:00am 3ft 8s 13
mph
1020.7mb 60f 59f
4:00am 3ft 8s 13 16 mph 1020.9mb 60f 59f
3:00am 3ft 8s 9 11 mph 1021mb 60f 59f
2:00am 3ft 8s 11 13 mph 1021.2mb 60f 60f
1:00am 3.5ft 8s 9
mph
1021.6mb 60f 60f
12:00am 3.5ft 8s 9 11 mph 1021.8mb 60f 60f
Sun 07/27 11:00pm 3.5ft 8s 4 7 mph 1021.9mb 60f 60f
10:00pm 3ft 7s 7 9 mph 1022.1mb 60f 60f
9:00pm 3ft 8s 4 7 mph 1022mb 60f 60f
8:00pm 3.5ft 8s 7 9 mph 1022.3mb 60f 59f
7:00pm 3.5ft 8s 9 11 mph 1022.3mb 60f 60f
6:00pm 3.5ft 8s 9 11 mph 1022.5mb 60f 61f
5:00pm 3.5ft 8s 9 11 mph 1022.8mb 60f 61f
4:00pm 3.5ft 8s 9 11 mph 1022.8mb 60f 61f
3:00pm 3.5ft 8s 9 11 mph 1022.8mb 60f 61f
2:00pm 3.5ft 8s 11 16 mph 1022.7mb 60f 61f
1:00pm 3.5ft 8s 13 16 mph 1022.8mb 60f 60f
12:00pm 3.5ft 8s 11 13 mph 1022.6mb 60f 60f
11:00am 3.5ft 8s 11 13 mph 1022.4mb 60f 60f
10:00am 3.5ft 8s 11 13 mph 1022.3mb 59f 60f
9:00am 3.5ft 8s 11 13 mph 1022.1mb 59f 60f
8:00am 4ft 8s 13 16 mph 1021.7mb 59f 59f
7:00am 4.5ft 7s 11 13 mph 1021.3mb 59f 59f
6:00am 4.5ft 6s 13 16 mph 1021mb 59f 59f
5:00am 4.5ft 8s 16 20 mph 1020.8mb 59f 59f
4:00am 4.5ft 7s 16 18 mph 1020.7mb 59f 59f
3:00am 4.5ft 8s 13 18 mph 1020.9mb 59f 59f
2:00am 4.5ft 8s 13 18 mph 1021mb 59f 59f
1:00am 4.5ft 8s 13 18 mph 1021.1mb 59f 60f
12:00am 4.5ft 8s 13 16 mph 1021.1mb 59f 60f
Sat 07/26 11:00pm 4.5ft 8s 13 16 mph 1021mb 59f 60f